Time;durP1;ratioP1;P1;durP2;ratioP2;P2;SDS_P1;SDS_P2;PMS_P1;PMS_P2;Temp;Humidity;BMP_temperature;BMP_pressure;BME280_temperature;BME280_humidity;BME280_pressure;Samples;Min_cycle;Max_cycle;Signal;HPM_P1;HPM_P2
2022/07/31 00:02:20;;;;;;;1999.90;884.35;;;19.20;99.90;;;;;;4916444;29;20195;-82
2022/07/31 00:04:46;;;;;;;1497.85;824.38;;;19.30;99.90;;;;;;4899534;29;20063;-82
2022/07/31 00:07:12;;;;;;;1987.72;685.63;;;19.30;99.90;;;;;;4915783;29;20091;-82
2022/07/31 00:09:37;;;;;;;1999.90;999.90;;;19.30;99.90;;;;;;4915276;29;20051;-81
2022/07/31 00:12:04;;;;;;;1999.90;863.45;;;19.20;99.90;;;;;;4899353;29;20044;-82
2022/07/31 00:14:30;;;;;;;1496.20;433.27;;;19.20;99.90;;;;;;4883948;29;20047;-83
2022/07/31 00:16:56;;;;;;;1999.90;999.90;;;19.10;99.90;;;;;;4916008;29;20052;-80
2022/07/31 00:19:22;;;;;;;1000.03;354.20;;;19.10;99.90;;;;;;4899666;29;20535;-80
2022/07/31 00:21:47;;;;;;;1999.90;763.38;;;19.00;99.90;;;;;;4883241;29;20056;-85
2022/07/31 00:24:13;;;;;;;1525.75;794.40;;;19.00;99.90;;;;;;4884174;29;20056;-81
2022/07/31 00:26:39;;;;;;;1999.90;893.83;;;18.90;99.90;;;;;;4867864;29;20413;-81
2022/07/31 00:29:05;;;;;;;1999.90;723.17;;;18.90;99.90;;;;;;4915280;29;20052;-81
2022/07/31 00:31:31;;;;;;;1999.90;999.90;;;18.90;99.90;;;;;;4899554;29;20486;-80
2022/07/31 00:33:57;;;;;;;1999.90;951.97;;;18.80;99.90;;;;;;4898835;29;20143;-81
2022/07/31 00:36:23;;;;;;;1999.90;826.05;;;18.80;99.90;;;;;;4899375;29;20414;-81
2022/07/31 00:38:48;;;;;;;1818.03;629.20;;;18.70;99.90;;;;;;4898738;29;20131;-82
2022/07/31 00:41:14;;;;;;;1999.90;729.78;;;18.70;99.90;;;;;;4883888;29;20537;-81
2022/07/31 00:43:40;;;;;;;1999.90;879.20;;;18.60;99.90;;;;;;4899129;29;20088;-80
2022/07/31 00:46:06;;;;;;;1738.10;608.17;;;18.60;99.90;;;;;;4886892;29;20052;-82
2022/07/31 00:48:32;;;;;;;1999.90;999.90;;;18.50;99.90;;;;;;4903128;29;20070;-81
2022/07/31 00:50:58;;;;;;;1999.90;808.83;;;18.50;99.90;;;;;;4919575;29;20080;-82
2022/07/31 00:53:24;;;;;;;1999.90;998.72;;;18.40;99.90;;;;;;4886953;29;20143;-81
2022/07/31 00:55:50;;;;;;;1999.90;999.90;;;18.40;99.90;;;;;;4902634;29;20054;-81
2022/07/31 00:58:15;;;;;;;1434.35;808.92;;;18.40;99.90;;;;;;4902914;29;20079;-81
2022/07/31 01:00:41;;;;;;;1558.72;999.90;;;18.40;99.90;;;;;;4902597;29;20167;-82
2022/07/31 01:03:07;;;;;;;1999.90;999.90;;;18.40;99.90;;;;;;4902904;29;20048;-81
2022/07/31 01:05:33;;;;;;;1872.85;878.08;;;18.40;99.90;;;;;;4919560;29;20387;-81
2022/07/31 01:07:58;;;;;;;1999.90;915.13;;;18.40;99.90;;;;;;4901864;29;20056;-81
2022/07/31 01:10:53;;;;;;;1999.90;999.90;;;18.40;99.90;;;;;;4919748;29;20056;-81
2022/07/31 01:13:30;;;;;;;1999.90;999.90;;;18.40;99.90;;;;;;4887897;29;20501;-82
2022/07/31 01:15:58;;;;;;;1999.90;999.90;;;18.40;99.90;;;;;;4919184;29;20220;-82
2022/07/31 01:18:28;;;;;;;1999.90;999.90;;;18.50;99.90;;;;;;4919297;29;20052;-82
2022/07/31 01:21:00;;;;;;;1999.90;885.00;;;18.50;99.90;;;;;;4886861;29;20052;-82
2022/07/31 01:23:55;;;;;;;1999.90;894.55;;;18.40;99.90;;;;;;4901987;29;20398;-80
2022/07/31 01:26:40;;;;;;;1689.25;946.90;;;18.50;99.90;;;;;;4902602;29;20131;-82
2022/07/31 01:29:25;;;;;;;1999.90;896.92;;;18.50;99.90;;;;;;4902368;29;20490;-81
2022/07/31 01:31:58;;;;;;;1988.47;999.90;;;18.50;99.90;;;;;;4885127;29;20184;-81
2022/07/31 01:34:47;;;;;;;1999.90;999.90;;;18.50;99.90;;;;;;4901792;29;20063;-81
2022/07/31 01:37:51;;;;;;;1999.90;634.33;;;18.50;99.90;;;;;;4918695;29;20099;-82
2022/07/31 01:40:42;;;;;;;1999.90;999.90;;;18.50;99.90;;;;;;4918942;29;20062;-81
2022/07/31 01:43:12;;;;;;;1999.90;999.90;;;18.50;99.90;;;;;;4885938;29;20044;-81
2022/07/31 01:45:41;;;;;;;1449.43;871.55;;;18.50;99.90;;;;;;4871160;29;20063;-82
2022/07/31 01:48:12;;;;;;;1999.90;909.42;;;18.50;99.90;;;;;;4902086;29;20052;-81
2022/07/31 01:50:39;;;;;;;1999.90;995.60;;;18.50;99.90;;;;;;4902224;29;20096;-82
2022/07/31 01:53:07;;;;;;;1999.90;999.90;;;18.50;99.90;;;;;;4901160;29;20055;-81
2022/07/31 01:55:34;;;;;;;1999.90;999.90;;;18.50;99.90;;;;;;4886267;29;20493;-82
2022/07/31 01:58:01;;;;;;;1999.90;999.90;;;18.50;99.90;;;;;;4900951;29;20090;-83
2022/07/31 02:00:27;;;;;;;1999.90;901.88;;;18.50;99.90;;;;;;4918736;29;20047;-82
2022/07/31 02:02:54;;;;;;;1966.60;845.20;;;18.50;99.90;;;;;;4918223;29;20139;-84
2022/07/31 02:05:21;;;;;;;1999.90;935.72;;;18.50;99.90;;;;;;4918324;29;20498;-82
2022/07/31 02:07:48;;;;;;;1999.90;999.90;;;18.50;99.90;;;;;;4917838;29;20059;-84
2022/07/31 02:10:17;;;;;;;1484.35;986.42;;;18.50;99.90;;;;;;4918550;29;20059;-82
2022/07/31 02:12:43;;;;;;;1999.90;864.92;;;18.50;99.90;;;;;;4918308;29;20485;-84
2022/07/31 02:15:12;;;;;;;1281.53;941.92;;;18.50;99.90;;;;;;4918424;29;20139;-82
2022/07/31 02:17:38;;;;;;;1999.90;999.90;;;18.50;99.90;;;;;;4918592;29;20131;-82
2022/07/31 02:20:06;;;;;;;1999.90;926.10;;;18.40;99.90;;;;;;4918098;29;20055;-84
2022/07/31 02:22:33;;;;;;;1999.90;811.22;;;18.40;99.90;;;;;;4901071;29;20060;-82
2022/07/31 02:24:59;;;;;;;1999.90;914.28;;;18.40;99.90;;;;;;4901134;29;20052;-84
2022/07/31 02:27:27;;;;;;;1852.47;999.90;;;18.40;99.90;;;;;;4901265;29;20056;-82
2022/07/31 02:29:54;;;;;;;;;;;18.40;99.90;;;;;;4918292;29;20135;-82
2022/07/31 02:32:22;;;;;;;1867.65;547.97;;;18.60;99.90;;;;;;4917998;29;19923;-82
2022/07/31 02:34:49;;;;;;;1452.82;902.05;;;18.40;99.90;;;;;;4917407;29;20056;-85
2022/07/31 02:37:17;;;;;;;1530.90;378.90;;;18.40;99.90;;;;;;4917589;29;20533;-84
2022/07/31 02:39:43;;;;;;;1999.90;597.08;;;18.40;99.90;;;;;;4917993;29;20052;-82
2022/07/31 02:42:09;;;;;;;1782.18;550.47;;;18.40;99.90;;;;;;4917583;29;20100;-82
2022/07/31 02:44:37;;;;;;;1294.90;664.55;;;18.40;99.90;;;;;;4917908;29;20127;-82
2022/07/31 02:47:06;;;;;;;1999.90;999.90;;;18.50;99.90;;;;;;4917464;29;20056;-82
2022/07/31 02:49:32;;;;;;;1769.05;861.28;;;18.40;99.90;;;;;;4917527;29;20494;-82
2022/07/31 02:51:58;;;;;;;1740.50;804.05;;;18.40;99.90;;;;;;4917001;29;20059;-82
2022/07/31 02:54:24;;;;;;;1999.30;771.30;;;18.40;99.90;;;;;;4916646;29;20044;-83
2022/07/31 02:56:51;;;;;;;1999.90;763.40;;;18.50;99.90;;;;;;4917294;29;20055;-82
2022/07/31 02:59:17;;;;;;;1999.90;962.22;;;18.40;99.90;;;;;;4917314;29;20409;-82
2022/07/31 03:01:43;;;;;;;1722.72;812.40;;;18.40;99.90;;;;;;4917547;29;20061;-82
2022/07/31 03:04:09;;;;;;;1999.90;999.90;;;18.40;99.90;;;;;;4917242;29;20047;-82
2022/07/31 03:06:35;;;;;;;1999.90;870.63;;;18.40;99.90;;;;;;4917126;29;20048;-82
2022/07/31 03:09:01;;;;;;;1999.90;772.88;;;18.40;99.90;;;;;;4916016;29;20641;-83
2022/07/31 03:11:27;;;;;;;1999.90;955.67;;;18.40;99.90;;;;;;4900698;29;20052;-83
2022/07/31 03:13:57;;;;;;;1829.28;811.45;;;18.60;99.90;;;;;;4916985;29;20050;-83
2022/07/31 03:16:24;;;;;;;1990.47;609.45;;;18.40;99.90;;;;;;4917391;29;20044;-83
2022/07/31 03:18:51;;;;;;;1999.90;785.92;;;18.40;99.90;;;;;;4917156;29;20134;-83
2022/07/31 03:21:18;;;;;;;1999.90;727.13;;;18.40;99.90;;;;;;4917908;29;20052;-83
2022/07/31 03:23:45;;;;;;;1824.00;788.35;;;18.40;99.90;;;;;;4917334;29;20048;-82
2022/07/31 03:26:11;;;;;;;1999.90;649.63;;;18.40;99.90;;;;;;4916963;29;20044;-83
2022/07/31 03:28:36;;;;;;;1954.18;905.67;;;18.40;99.90;;;;;;4917118;29;20048;-83
2022/07/31 03:31:02;;;;;;;1972.57;670.78;;;18.40;99.90;;;;;;4900143;29;20398;-83
2022/07/31 03:33:28;;;;;;;1307.97;652.55;;;18.30;99.90;;;;;;4900210;29;20048;-82
2022/07/31 03:35:54;;;;;;;1999.90;944.85;;;18.30;99.90;;;;;;4916793;29;20064;-83
2022/07/31 03:38:20;;;;;;;1970.40;999.90;;;18.30;99.90;;;;;;4916646;29;20044;-83
2022/07/31 03:40:46;;;;;;;1999.90;999.90;;;18.30;99.90;;;;;;4916943;29;20512;-82
2022/07/31 03:43:14;;;;;;;1999.90;971.38;;;18.20;99.90;;;;;;4916440;29;20040;-83
2022/07/31 03:45:41;;;;;;;1999.90;960.88;;;18.20;99.90;;;;;;4917033;29;20067;-83
2022/07/31 03:48:07;;;;;;;1999.90;999.90;;;18.20;99.90;;;;;;4916159;29;20493;-82
2022/07/31 03:50:36;;;;;;;1999.90;999.90;;;18.10;99.90;;;;;;4916801;29;20051;-82
2022/07/31 03:53:06;;;;;;;1999.90;962.97;;;18.00;99.90;;;;;;4915966;29;20139;-82
2022/07/31 03:55:34;;;;;;;1999.90;805.58;;;18.00;99.90;;;;;;4916803;29;20083;-82
2022/07/31 03:58:02;;;;;;;1999.90;920.58;;;17.90;99.90;;;;;;4916622;29;20064;-83
2022/07/31 04:00:28;;;;;;;1999.90;999.90;;;17.90;99.90;;;;;;4916658;29;20108;-82
2022/07/31 04:02:55;;;;;;;1999.90;999.90;;;18.00;99.90;;;;;;4916199;29;20059;-83
2022/07/31 04:05:22;;;;;;;1999.90;986.63;;;17.90;99.90;;;;;;4916691;29;20391;-82
2022/07/31 04:07:49;;;;;;;1999.90;999.90;;;17.90;99.90;;;;;;4916123;29;20335;-82
2022/07/31 04:10:15;;;;;;;1999.90;964.42;;;17.90;99.90;;;;;;4916255;29;20371;-82
2022/07/31 04:12:40;;;;;;;1822.60;999.90;;;17.90;99.90;;;;;;4916486;29;20127;-82
2022/07/31 04:15:06;;;;;;;1783.45;999.90;;;17.90;99.90;;;;;;4916148;29;20104;-83
2022/07/31 04:17:32;;;;;;;1999.90;999.90;;;17.90;99.90;;;;;;4916414;29;20221;-83
2022/07/31 04:19:58;;;;;;;1999.90;999.90;;;17.90;99.90;;;;;;4916425;29;20048;-83
2022/07/31 04:22:24;;;;;;;1999.90;999.90;;;18.00;99.90;;;;;;4903306;29;20059;-83
2022/07/31 04:24:49;;;;;;;1999.90;964.78;;;18.00;99.90;;;;;;4920061;29;20048;-83
2022/07/31 04:27:16;;;;;;;1999.90;933.45;;;18.00;99.90;;;;;;4919948;29;20135;-83
2022/07/31 04:29:43;;;;;;;1999.90;999.90;;;18.00;99.90;;;;;;4920363;29;20048;-83
2022/07/31 04:32:09;;;;;;;1940.10;940.70;;;18.00;99.90;;;;;;4919847;29;20103;-83
2022/07/31 04:34:35;;;;;;;1999.90;999.90;;;18.10;99.90;;;;;;4919802;29;20068;-83
2022/07/31 04:37:00;;;;;;;1999.90;999.90;;;18.10;99.90;;;;;;4887187;29;20491;-83
2022/07/31 04:39:26;;;;;;;1990.95;999.90;;;18.10;99.90;;;;;;4920141;29;20060;-83
2022/07/31 04:41:52;;;;;;;1999.90;999.90;;;18.10;99.90;;;;;;4919932;29;20070;-82
2022/07/31 04:44:18;;;;;;;1643.70;999.90;;;18.20;99.90;;;;;;4919803;29;20385;-83
2022/07/31 04:46:44;;;;;;;1125.78;992.80;;;18.20;99.90;;;;;;4919696;29;20137;-83
2022/07/31 04:49:13;;;;;;;1549.85;999.90;;;18.30;99.90;;;;;;4918583;29;20044;-83
2022/07/31 04:51:41;;;;;;;1264.75;991.50;;;18.30;99.90;;;;;;4919921;29;20120;-83
2022/07/31 04:54:07;;;;;;;1970.07;999.90;;;18.30;99.90;;;;;;4886702;29;20055;-83
2022/07/31 04:56:34;;;;;;;1698.75;999.90;;;18.30;99.90;;;;;;4902854;29;20055;-83
2022/07/31 04:59:04;;;;;;;1376.70;999.90;;;18.30;99.90;;;;;;4902952;29;20044;-83
2022/07/31 05:01:29;;;;;;;1652.57;999.90;;;18.30;99.90;;;;;;4903064;29;20120;-83
2022/07/31 05:03:55;;;;;;;1750.38;999.90;;;18.30;99.90;;;;;;4902883;29;20056;-83
2022/07/31 05:06:21;;;;;;;1807.68;999.90;;;18.40;99.90;;;;;;4919322;29;20040;-82
2022/07/31 05:08:46;;;;;;;1999.90;945.35;;;18.40;99.90;;;;;;4919138;29;20048;-82
2022/07/31 05:11:21;;;;;;;1999.90;999.90;;;18.40;99.90;;;;;;4919303;29;20051;-83
2022/07/31 05:13:52;;;;;;;1999.90;897.13;;;18.40;99.90;;;;;;4919280;29;20103;-83
2022/07/31 05:16:19;;;;;;;1265.78;919.45;;;18.40;99.90;;;;;;4919223;29;20048;-83
2022/07/31 05:18:46;;;;;;;1638.60;999.90;;;18.40;99.90;;;;;;4919073;29;20051;-82
2022/07/31 05:21:13;;;;;;;1999.90;999.90;;;18.50;99.90;;;;;;4919010;29;20127;-83
2022/07/31 05:23:40;;;;;;;1218.93;952.30;;;18.50;99.90;;;;;;4918905;29;20129;-83
2022/07/31 05:26:07;;;;;;;1999.90;990.05;;;18.60;99.90;;;;;;4919073;29;20062;-83
2022/07/31 05:28:32;;;;;;;1999.90;936.60;;;18.60;99.90;;;;;;4919133;29;20048;-82
2022/07/31 05:30:59;;;;;;;1999.90;999.90;;;18.60;99.90;;;;;;4918417;29;20059;-83
2022/07/31 05:33:25;;;;;;;1999.90;929.08;;;18.70;99.90;;;;;;4918593;29;20123;-82
2022/07/31 05:35:50;;;;;;;1999.90;863.97;;;18.70;99.90;;;;;;4919304;29;20092;-82
2022/07/31 05:38:16;;;;;;;1999.90;854.00;;;18.80;99.90;;;;;;4901580;29;20064;-82
2022/07/31 05:40:42;;;;;;;1999.90;908.97;;;18.80;99.90;;;;;;4919090;29;20135;-82
2022/07/31 05:43:09;;;;;;;1999.90;999.90;;;18.80;99.90;;;;;;4918616;29;20040;-82
2022/07/31 05:45:35;;;;;;;1998.57;964.83;;;18.80;99.90;;;;;;4919025;29;20056;-83
2022/07/31 05:48:01;;;;;;;1999.90;999.90;;;18.90;99.90;;;;;;4918886;29;20048;-82
2022/07/31 05:50:27;;;;;;;1999.90;884.65;;;18.90;99.90;;;;;;4901834;29;20040;-82
2022/07/31 05:52:53;;;;;;;1999.90;955.35;;;19.00;99.90;;;;;;4918376;29;20528;-82
2022/07/31 05:55:20;;;;;;;1279.30;995.97;;;19.00;99.90;;;;;;4918531;29;20056;-82
2022/07/31 05:57:45;;;;;;;1999.90;999.90;;;19.10;99.90;;;;;;4918669;29;20134;-83
2022/07/31 06:00:12;;;;;;;1999.90;999.90;;;19.10;99.90;;;;;;4918489;29;20135;-83
2022/07/31 06:02:38;;;;;;;1999.90;998.65;;;19.30;99.90;;;;;;4918553;29;20092;-82
2022/07/31 06:05:04;;;;;;;1999.90;942.30;;;19.40;99.90;;;;;;4902002;29;20409;-83
2022/07/31 06:07:30;;;;;;;1999.90;362.05;;;19.50;99.90;;;;;;4901200;29;20091;-83
2022/07/31 06:09:55;;;;;;;1999.90;905.75;;;19.50;99.90;;;;;;4918631;29;20080;-83
2022/07/31 06:12:21;;;;;;;1999.72;929.22;;;19.50;99.90;;;;;;4918151;29;20059;-83
2022/07/31 06:14:48;;;;;;;1999.90;812.80;;;19.50;99.90;;;;;;4901482;29;20084;-83
2022/07/31 06:17:14;;;;;;;1972.20;702.00;;;19.50;99.90;;;;;;4918017;29;20083;-83
2022/07/31 06:19:39;;;;;;;1999.90;999.28;;;19.50;99.90;;;;;;4918134;29;20083;-83
2022/07/31 06:22:05;;;;;;;1999.90;999.90;;;19.50;99.90;;;;;;4917888;29;20056;-83
2022/07/31 06:24:31;;;;;;;1999.90;999.90;;;19.50;99.90;;;;;;4917988;29;20131;-83
2022/07/31 06:26:57;;;;;;;1999.90;999.90;;;19.60;99.90;;;;;;4916855;29;20398;-83
2022/07/31 06:29:23;;;;;;;1999.90;999.90;;;19.60;99.90;;;;;;4917900;29;20067;-83
2022/07/31 06:31:49;;;;;;;1999.90;999.90;;;19.60;99.90;;;;;;4917872;29;20044;-83
2022/07/31 06:34:14;;;;;;;1999.90;999.90;;;19.70;99.90;;;;;;4917620;29;20490;-83
2022/07/31 06:36:40;;;;;;;1999.90;999.90;;;19.70;99.90;;;;;;4901204;29;20490;-83
2022/07/31 06:39:06;;;;;;;1999.90;999.90;;;19.70;99.90;;;;;;4917617;29;20056;-83
2022/07/31 06:41:43;;;;;;;1999.90;999.90;;;19.70;99.90;;;;;;4917934;29;20044;-83
2022/07/31 06:44:18;;;;;;;1879.07;999.90;;;19.80;99.90;;;;;;4916659;29;20048;-83
2022/07/31 06:46:44;;;;;;;1697.05;999.90;;;19.90;99.90;;;;;;4917957;29;20040;-83
2022/07/31 06:49:10;;;;;;;1999.90;999.90;;;20.00;99.90;;;;;;4916719;29;20131;-83
2022/07/31 06:51:36;;;;;;;1999.90;999.90;;;20.00;99.90;;;;;;4917466;29;20139;-83
2022/07/31 06:54:04;;;;;;;1999.90;999.90;;;20.00;99.90;;;;;;4917199;29;20044;-83
2022/07/31 06:56:32;;;;;;;1999.90;887.13;;;20.20;99.90;;;;;;4917349;29;20059;-83
2022/07/31 06:58:57;;;;;;;1974.20;859.30;;;20.20;99.90;;;;;;4900917;29;20064;-83
2022/07/31 07:01:23;;;;;;;1999.90;999.90;;;20.30;99.90;;;;;;4917276;29;20046;-83
2022/07/31 07:03:49;;;;;;;1999.90;999.90;;;20.30;99.90;;;;;;4917389;29;20048;-83
2022/07/31 07:06:15;;;;;;;1840.05;998.65;;;20.40;99.90;;;;;;4917479;29;20086;-83
2022/07/31 07:08:40;;;;;;;1999.90;999.90;;;20.50;99.90;;;;;;4900365;29;20119;-83
2022/07/31 07:11:06;;;;;;;1999.90;967.45;;;20.40;99.90;;;;;;4917466;29;20095;-83
2022/07/31 07:13:32;;;;;;;1163.63;332.08;;;20.50;99.90;;;;;;4916986;29;20085;-83
2022/07/31 07:15:58;;;;;;;1944.13;875.60;;;20.40;99.90;;;;;;4917665;29;20067;-83
2022/07/31 07:18:23;;;;;;;1999.90;999.90;;;20.50;99.90;;;;;;4917426;29;20108;-84
2022/07/31 07:20:50;;;;;;;1949.70;917.58;;;20.50;99.90;;;;;;4917704;29;20481;-83
2022/07/31 07:23:17;;;;;;;1999.90;903.05;;;20.60;99.90;;;;;;4917518;29;20143;-82
2022/07/31 07:25:43;;;;;;;1497.55;403.00;;;20.60;99.90;;;;;;4917522;29;20415;-82
2022/07/31 07:28:09;;;;;;;1845.95;845.63;;;20.80;99.90;;;;;;4917476;29;20044;-82
2022/07/31 07:30:35;;;;;;;1999.90;857.53;;;20.90;99.90;;;;;;4917045;29;20557;-83
2022/07/31 07:33:01;;;;;;;1523.72;636.78;;;21.00;99.90;;;;;;4917290;29;20051;-83
2022/07/31 07:35:27;;;;;;;1931.32;865.08;;;21.10;99.90;;;;;;4916874;29;20109;-83
2022/07/31 07:37:53;;;;;;;1999.90;555.45;;;21.20;99.90;;;;;;4916638;29;20060;-83
2022/07/31 07:40:19;;;;;;;1999.90;999.90;;;21.30;99.90;;;;;;4916925;29;20056;-83
2022/07/31 07:42:45;;;;;;;1857.88;905.30;;;21.50;99.90;;;;;;4915694;29;20051;-83
2022/07/31 07:45:12;;;;;;;1999.90;999.90;;;21.80;99.90;;;;;;4916830;29;20099;-83
2022/07/31 07:47:38;;;;;;;1999.90;999.90;;;21.90;99.90;;;;;;4899590;29;20048;-83
2022/07/31 07:50:06;;;;;;;1561.47;779.08;;;21.90;99.90;;;;;;4916939;29;20056;-85
2022/07/31 07:52:33;;;;;;;1999.90;999.90;;;21.90;99.90;;;;;;4899213;29;20511;-83
2022/07/31 07:54:59;;;;;;;1999.90;999.90;;;22.20;99.90;;;;;;4916206;29;20048;-83
2022/07/31 07:57:25;;;;;;;1515.20;863.78;;;23.20;99.90;;;;;;4899642;29;20071;-83
2022/07/31 07:59:51;;;;;;;1017.08;846.28;;;23.90;99.90;;;;;;4900052;29;20533;-83
2022/07/31 08:02:17;;;;;;;1188.32;757.05;;;24.20;90.00;;;;;;4916551;29;20056;-84
2022/07/31 08:04:43;;;;;;;1999.90;999.90;;;24.20;80.70;;;;;;4916408;29;20383;-83
2022/07/31 08:07:08;;;;;;;1695.00;930.10;;;23.80;83.50;;;;;;4899308;29;20099;-83
2022/07/31 08:09:35;;;;;;;1209.10;943.80;;;23.90;84.70;;;;;;4916607;29;20054;-83
2022/07/31 08:12:02;;;;;;;1683.47;876.80;;;23.90;76.00;;;;;;4899795;29;20094;-84
2022/07/31 08:14:28;;;;;;;1662.63;718.63;;;23.40;74.10;;;;;;4916223;29;20040;-84
2022/07/31 08:16:54;;;;;;;1519.00;741.08;;;23.20;83.20;;;;;;4916469;29;20364;-83
2022/07/31 08:19:20;;;;;;;1393.78;630.03;;;22.90;92.80;;;;;;4916853;29;20048;-83
2022/07/31 08:21:46;;;;;;;1313.18;629.47;;;22.60;98.90;;;;;;4915942;29;20048;-84
2022/07/31 08:24:15;;;;;;;1999.90;999.90;;;22.50;98.80;;;;;;4916437;29;20048;-83
2022/07/31 08:29:25;;;;;;;1999.90;999.90;;;22.20;99.90;;;;;;4916465;29;20063;-83
2022/07/31 08:31:51;;;;;;;1999.90;999.90;;;22.30;99.90;;;;;;4916324;29;20060;-83
2022/07/31 08:34:17;;;;;;;1808.78;735.63;;;22.20;99.90;;;;;;4899243;29;20060;-84
2022/07/31 08:36:43;;;;;;;1724.35;700.88;;;22.20;99.90;;;;;;4916199;29;20490;-84
2022/07/31 08:39:09;;;;;;;1118.18;377.52;;;22.10;99.90;;;;;;4899407;29;20056;-84
2022/07/31 08:41:38;;;;;;;1999.90;999.90;;;22.10;99.90;;;;;;4916015;29;20044;-83
2022/07/31 08:44:08;;;;;;;1999.90;999.90;;;22.10;99.90;;;;;;4916199;29;20048;-82
2022/07/31 08:46:38;;;;;;;1999.90;623.65;;;22.10;99.90;;;;;;4915887;29;20044;-82
2022/07/31 08:49:04;;;;;;;1999.90;773.67;;;22.20;99.90;;;;;;4899470;29;20142;-83
2022/07/31 08:51:35;;;;;;;1999.90;999.90;;;22.30;99.90;;;;;;4915966;29;20378;-83
2022/07/31 08:54:07;;;;;;;1578.07;549.75;;;22.30;99.90;;;;;;4898969;29;20052;-83
2022/07/31 08:56:34;;;;;;;1999.90;999.90;;;22.20;99.90;;;;;;4916165;29;20059;-83
2022/07/31 08:59:00;;;;;;;1999.90;999.90;;;21.90;99.90;;;;;;4915041;29;20056;-82
2022/07/31 09:01:27;;;;;;;1999.90;999.90;;;21.90;99.90;;;;;;4916032;29;20497;-82
2022/07/31 09:03:53;;;;;;;1999.90;999.90;;;21.50;99.90;;;;;;4915597;29;20052;-83
2022/07/31 09:06:19;;;;;;;1999.90;998.47;;;21.30;99.90;;;;;;4917772;29;20481;-82
2022/07/31 09:08:45;;;;;;;1491.70;895.28;;;21.00;99.90;;;;;;4918870;29;20052;-81
2022/07/31 09:11:13;;;;;;;1999.90;999.90;;;20.70;99.90;;;;;;4919572;29;20056;-81
2022/07/31 09:13:39;;;;;;;;;;;20.50;1.00;;;;;;4919472;29;20131;-81
2022/07/31 09:16:05;;;;;;;1988.00;999.90;;;20.10;99.90;;;;;;4919502;29;19967;-80
2022/07/31 09:18:32;;;;;;;1999.90;999.90;;;19.80;99.90;;;;;;4902698;29;20116;-81
2022/07/31 09:21:03;;;;;;;1999.90;999.90;;;19.70;99.90;;;;;;4918261;29;20044;-79
2022/07/31 09:23:30;;;;;;;1999.90;999.90;;;19.70;99.90;;;;;;4902074;29;20067;-79
2022/07/31 09:26:04;;;;;;;1999.90;999.90;;;19.70;99.90;;;;;;4902399;29;20048;-79
2022/07/31 09:28:34;;;;;;;1999.90;999.90;;;19.70;99.90;;;;;;4919232;29;20083;-79
2022/07/31 09:31:00;;;;;;;1999.90;999.90;;;19.60;99.90;;;;;;4918895;29;20561;-78
2022/07/31 09:33:28;;;;;;;1999.90;999.90;;;19.80;1.00;;;;;;4919015;29;20048;-78
2022/07/31 09:35:54;;;;;;;;;;;19.70;1.00;;;;;;4919434;29;20052;-79
2022/07/31 09:38:19;;;;;;;1999.90;999.90;;;19.80;99.90;;;;;;4918709;29;19971;-78
2022/07/31 09:40:45;;;;;;;1999.90;999.90;;;19.90;99.90;;;;;;4918800;29;20096;-78
2022/07/31 09:43:23;;;;;;;1999.90;999.90;;;19.70;99.90;;;;;;4918933;29;20055;-78
2022/07/31 09:46:02;;;;;;;1999.90;999.90;;;19.60;1.00;;;;;;4918724;29;20044;-77
2022/07/31 09:48:28;;;;;;;1999.90;999.90;;;19.50;1.00;;;;;;4902256;29;20056;-77
2022/07/31 09:51:07;;;;;;;1999.90;999.90;;;19.70;99.90;;;;;;4918576;29;20378;-77
2022/07/31 09:53:48;;;;;;;1999.90;999.90;;;20.00;71.70;;;;;;4918469;29;20393;-77
2022/07/31 09:56:14;;;;;;;1999.90;999.90;;;20.00;99.90;;;;;;4902197;29;20056;-77
2022/07/31 09:58:43;;;;;;;1999.90;999.90;;;20.10;99.90;;;;;;4918368;29;20044;-79
2022/07/31 10:01:11;;;;;;;1999.90;999.90;;;20.50;99.90;;;;;;4918582;29;20048;-77
2022/07/31 10:03:39;;;;;;;1999.90;999.90;;;20.40;1.00;;;;;;4918550;29;20200;-77
2022/07/31 10:06:07;;;;;;;;;;;19.80;99.90;;;;;;4919073;29;20063;-77
2022/07/31 10:08:36;;;;;;;1999.90;999.90;;;19.70;99.90;;;;;;4918209;29;20329;-77
2022/07/31 10:11:04;;;;;;;1999.90;999.90;;;20.20;99.90;;;;;;4918267;29;20152;-77
2022/07/31 10:13:37;;;;;;;1999.90;999.90;;;20.00;99.90;;;;;;4918289;29;20398;-76
2022/07/31 10:16:05;;;;;;;1999.90;999.90;;;19.80;99.90;;;;;;4901488;29;20055;-77
2022/07/31 10:18:36;;;;;;;1999.90;999.90;;;20.00;99.90;;;;;;4917808;29;20048;-77
2022/07/31 10:21:05;;;;;;;1999.90;999.90;;;19.70;99.90;;;;;;4901402;29;20481;-77
2022/07/31 10:23:33;;;;;;;1999.90;999.90;;;20.20;99.90;;;;;;4917897;29;20044;-77
2022/07/31 10:26:01;;;;;;;1999.90;999.90;;;20.60;99.90;;;;;;4917956;29;20052;-77
2022/07/31 10:28:28;;;;;;;1999.90;999.90;;;20.00;99.90;;;;;;4918086;29;20052;-78
2022/07/31 10:30:55;;;;;;;1999.90;999.90;;;19.60;99.90;;;;;;4917674;29;20048;-81
2022/07/31 10:33:21;;;;;;;1999.90;999.90;;;19.70;99.90;;;;;;4900930;29;20044;-82
2022/07/31 10:35:56;;;;;;;1999.90;999.90;;;19.90;99.90;;;;;;4916450;29;20067;-83
2022/07/31 10:38:29;;;;;;;1999.90;999.90;;;19.80;99.90;;;;;;4917787;29;20063;-82
2022/07/31 10:41:02;;;;;;;1999.90;999.90;;;20.70;99.90;;;;;;4901195;29;20104;-82
2022/07/31 10:43:44;;;;;;;1999.90;999.90;;;20.70;99.90;;;;;;4917893;29;20056;-82
2022/07/31 10:46:10;;;;;;;1999.90;999.90;;;19.80;99.90;;;;;;4902560;29;20131;-83
2022/07/31 10:48:36;;;;;;;1999.90;999.90;;;20.60;99.90;;;;;;4901036;29;20051;-82
2022/07/31 10:51:04;;;;;;;1999.90;999.90;;;20.00;99.90;;;;;;4917485;29;20104;-83
2022/07/31 10:53:30;;;;;;;1999.90;999.90;;;19.90;99.90;;;;;;4917292;29;20048;-82
2022/07/31 10:56:04;;;;;;;1999.90;999.90;;;20.80;99.90;;;;;;4917513;29;20116;-83
2022/07/31 10:58:30;;;;;;;1999.90;999.90;;;20.70;99.90;;;;;;4917685;29;20056;-82
2022/07/31 11:01:06;;;;;;;1999.90;999.90;;;20.20;99.90;;;;;;4917395;29;20478;-82
2022/07/31 11:03:45;;;;;;;1999.90;999.90;;;19.60;99.90;;;;;;4900846;29;20060;-82
2022/07/31 11:06:12;;;;;;;1999.90;999.90;;;19.60;99.90;;;;;;4917552;29;20062;-81
2022/07/31 11:08:56;;;;;;;1999.90;999.90;;;19.50;99.90;;;;;;4917186;29;20056;-83
2022/07/31 11:11:32;;;;;;;1999.90;999.90;;;20.40;99.90;;;;;;4900708;29;20075;-83
2022/07/31 11:13:59;;;;;;;1999.90;999.90;;;20.80;99.90;;;;;;4917015;29;20111;-83
2022/07/31 11:16:25;;;;;;;1999.90;999.90;;;19.70;99.90;;;;;;4917048;29;20503;-82
2022/07/31 11:19:03;;;;;;;1999.90;999.90;;;21.40;99.90;;;;;;4916942;29;20052;-82
2022/07/31 11:21:37;;;;;;;1999.90;999.90;;;20.30;99.90;;;;;;4917283;29;20379;-82
2022/07/31 11:24:12;;;;;;;1999.90;999.90;;;20.80;99.90;;;;;;4916594;29;20284;-82
2022/07/31 11:27:01;;;;;;;1999.90;999.90;;;19.80;99.90;;;;;;4916950;29;20082;-82
2022/07/31 11:29:26;;;;;;;;;;;20.00;99.90;;;;;;4916138;29;20068;-81
2022/07/31 11:31:52;;;;;;;1999.90;999.90;;;20.20;99.90;;;;;;4916677;29;19923;-80
2022/07/31 11:34:18;;;;;;;1999.90;999.90;;;20.20;99.90;;;;;;4916849;29;20079;-81
2022/07/31 11:36:44;;;;;;;1999.90;999.90;;;19.90;99.90;;;;;;4916920;29;20083;-89
2022/07/31 11:39:12;;;;;;;1999.90;999.90;;;19.60;99.90;;;;;;4899593;29;20048;-82
2022/07/31 11:41:38;;;;;;;1999.90;999.90;;;19.30;99.90;;;;;;4916953;29;20103;-82
2022/07/31 11:44:04;;;;;;;1999.90;999.90;;;19.90;99.90;;;;;;4915450;29;20046;-83
2022/07/31 11:46:32;;;;;;;1999.90;999.90;;;20.00;99.90;;;;;;4916902;29;20561;-84
2022/07/31 11:48:59;;;;;;;1999.90;999.90;;;19.50;99.90;;;;;;4916484;29;20081;-84
2022/07/31 11:51:26;;;;;;;1999.90;999.90;;;19.40;99.90;;;;;;4916803;29;20070;-84
2022/07/31 11:53:54;;;;;;;1999.90;999.90;;;19.20;99.90;;;;;;4916184;29;20192;-84
2022/07/31 11:56:20;;;;;;;1999.90;999.90;;;19.70;99.90;;;;;;4916879;29;20386;-86
2022/07/31 11:58:51;;;;;;;1999.90;999.90;;;19.10;99.90;;;;;;4916337;29;20048;-86
2022/07/31 12:01:18;;;;;;;1999.90;999.90;;;19.10;99.90;;;;;;4916600;29;20443;-86
2022/07/31 12:03:45;;;;;;;1999.90;999.90;;;19.60;99.90;;;;;;4916660;29;20044;-87
2022/07/31 12:06:12;;;;;;;1999.90;999.90;;;19.80;99.90;;;;;;4899661;29;20353;-87
2022/07/31 12:08:39;;;;;;;1999.90;999.90;;;19.50;99.90;;;;;;4916305;29;20544;-87